New York, New York
Current Conditions -  °F | °C
As of 7:51 PM on Monday 22 Dec 2014 (Local Time) from KNYC Reporting Station
Overcast Overcast  
Wind Chill: 41°   Ceiling: 1200
Heat Index: 44°   Visibility: 10mi
Dew Point: 39°   Wind: 6mph
Humidity: 82%   Direction: 90°E
Pressure: 30.25"   Gusts: NA
Location:  40.71°N, 74.01°W
Report Text: KNYC 230051Z AUTO 09005KT 10SM OVC012 07/04 A3025 RMK AO2 SLP234 T00670039 $
Loading
Personal Weather Stations






























Interactive Weather Map New forecast layout! Learn more

10-Day Weather Forecast

Advertisements
Track Severe Weather on mobile